Observations for Trim Market St
| Time | AQI | Temp °C | Hum % | Pres Pa | CO μg/m³ | H₂S μg/m³ | NO μg/m³ | NO₂ μg/m³ | O₃ μg/m³ | SO₂ μg/m³ | PM1 μg/m³ | PM2.5 μg/m³ | PM10 μg/m³ |
|---|---|---|---|---|---|---|---|---|---|---|---|---|---|
| Saturday 22 August 2026 | |||||||||||||
| 05:41 | 2 | 11.3 | 73 | 53,600 | 0.37 | 0 | 3.59 | 9.99 | 46.87 | 0 | 1.43 | 3.41 | 5.7 |
| 05:38 | 2 | 11.3 | 72 | 53,840 | 0.37 | 0 | 3.29 | 9.63 | 53.31 | 0 | 2.14 | 3.91 | 6.92 |
| 05:37 | 2 | 11.4 | 72 | 53,951 | 0.37 | 0 | 3.24 | 9.17 | 47.98 | 0 | 2.14 | 2.95 | 6.92 |
| 05:33 | 2 | 11.5 | 72 | 54,352 | 0.36 | 0 | 3.44 | 10.83 | 47.37 | 0 | 2.14 | 4.41 | 7.53 |
| 05:29 | 2 | 11.6 | 72 | 54,714 | 0.37 | 0 | 3.59 | 8.99 | 47.66 | 0 | 1.43 | 3.94 | 6.3 |
| 05:23 | 2 | 11.7 | 71 | 55,160 | 0.36 | 0 | 3.32 | 8.01 | 48.31 | 0 | 2.85 | 4.45 | 6.91 |
| 05:22 | 2 | 11.8 | 71 | 55,208 | 0.35 | 0 | 3.38 | 8.56 | 52.54 | 0 | 1.43 | 3.48 | 5.67 |
| 05:21 | 2 | 11.8 | 71 | 55,265 | 0.35 | 0 | 3.12 | 8.28 | 48.98 | 0 | 2.14 | 3.97 | 6.91 |
| 05:20 | 2 | 11.8 | 71 | 55,314 | 0.36 | 0 | 3.3 | 7.67 | 49.02 | 0 | 2.14 | 3.97 | 6.91 |
| 05:19 | 2 | 11.9 | 71 | 55,353 | 0.34 | 0 | 3.6 | 7.95 | 49.2 | 0 | 2.85 | 3.97 | 6.29 |
| 05:18 | 2 | 11.9 | 71 | 55,393 | 0.35 | 0 | 3.84 | 8.2 | 52.86 | 0 | 2.85 | 3.97 | 6.29 |
| 05:17 | 2 | 11.9 | 71 | 55,435 | 0.36 | 0 | 3.21 | 7.57 | 49.19 | 0 | 1.43 | 3.98 | 8.15 |
| 05:16 | 2 | 11.9 | 71 | 55,471 | 0.35 | 0 | 3.37 | 8.53 | 50.14 | 0 | 1.43 | 3.01 | 6.29 |
| 05:15 | 2 | 12 | 71 | 55,510 | 0.34 | 0 | 3.27 | 7.48 | 49.59 | 0 | 1.43 | 3.5 | 5.67 |
| 05:14 | 2 | 12 | 71 | 55,550 | 0.35 | 0 | 2.98 | 7.72 | 49.28 | 0 | 2.14 | 4.47 | 7.53 |
| 05:13 | 2 | 12 | 71 | 55,589 | 0.34 | 0 | 2.65 | 8.42 | 50.19 | 0 | 2.14 | 4.47 | 6.91 |
| 05:12 | 2 | 12 | 71 | 55,636 | 0.37 | 0 | 2.95 | 9.1 | 48.92 | 0 | 1.43 | 3.02 | 6.91 |
| 05:11 | 2 | 12.1 | 71 | 55,675 | 0.35 | 0 | 3 | 8.69 | 51.49 | 0 | 2.14 | 4.48 | 6.91 |
| 05:10 | 2 | 12.1 | 71 | 55,710 | 0.34 | 0 | 2.87 | 6.64 | 56.7 | 0 | 1.43 | 3.03 | 5.04 |
| 05:06 | 2 | 12.2 | 70 | 55,813 | 0.33 | 0 | 3.13 | 7.9 | 51.09 | 0 | 2.14 | 4 | 6.28 |